Time;durP1;ratioP1;P1;durP2;ratioP2;P2;SDS_P1;SDS_P2;PMS_P1;PMS_P2;Temp;Humidity;BMP_temperature;BMP_pressure;BME280_temperature;BME280_humidity;BME280_pressure;Samples;Min_cycle;Max_cycle;Signal;HPM_P1;HPM_P2
2023/11/20 00:00:28;;;;;;;2.08;0.80;;;11.80;93.50;;;;;;4787091;30;20096;-76
2023/11/20 00:02:54;;;;;;;3.33;0.88;;;11.80;93.50;;;;;;4771028;30;20055;-76
2023/11/20 00:05:20;;;;;;;2.83;0.88;;;11.80;93.50;;;;;;4787697;30;20032;-76
2023/11/20 00:07:46;;;;;;;2.55;0.73;;;11.80;93.50;;;;;;4787485;30;20491;-76
2023/11/20 00:10:12;;;;;;;3.97;1.02;;;11.80;93.50;;;;;;4756609;30;20047;-76
2023/11/20 00:12:39;;;;;;;3.53;0.90;;;11.80;93.50;;;;;;4787692;30;20046;-76
2023/11/20 00:15:05;;;;;;;3.58;1.10;;;11.80;93.50;;;;;;4787769;30;20131;-77
2023/11/20 00:17:31;;;;;;;4.05;1.00;;;11.80;93.50;;;;;;4787290;30;20035;-76
2023/11/20 00:19:57;;;;;;;2.70;0.70;;;11.80;93.60;;;;;;4770912;30;20717;-77
2023/11/20 00:22:22;;;;;;;2.55;0.90;;;11.80;93.60;;;;;;4786854;30;20074;-76
2023/11/20 00:24:48;;;;;;;2.85;0.93;;;11.60;93.50;;;;;;4770997;30;20127;-76
2023/11/20 00:27:15;;;;;;;2.30;0.73;;;11.80;93.60;;;;;;4787261;30;20079;-76
2023/11/20 00:29:41;;;;;;;4.20;1.15;;;11.70;93.60;;;;;;4770784;30;20055;-77
2023/11/20 00:32:07;;;;;;;3.67;0.90;;;11.70;93.60;;;;;;4787115;30;20070;-76
2023/11/20 00:34:35;;;;;;;3.35;0.90;;;11.70;93.60;;;;;;4770985;30;20503;-77
2023/11/20 00:37:01;;;;;;;4.43;1.00;;;11.70;93.60;;;;;;4770624;30;20074;-77
2023/11/20 00:39:27;;;;;;;3.72;1.08;;;11.70;93.60;;;;;;4786926;30;20392;-78
2023/11/20 00:41:52;;;;;;;1.92;0.70;;;11.70;93.70;;;;;;4770757;30;20138;-77
2023/11/20 00:44:18;;;;;;;5.78;1.00;;;11.70;93.70;;;;;;4786783;30;20086;-76
2023/11/20 00:46:44;;;;;;;2.00;0.80;;;11.70;93.70;;;;;;4771036;30;20134;-76
2023/11/20 00:49:09;;;;;;;1.83;0.70;;;11.70;93.70;;;;;;4770618;30;20088;-76
2023/11/20 00:51:35;;;;;;;2.47;0.77;;;11.70;93.70;;;;;;4786834;30;20437;-76
2023/11/20 00:54:01;;;;;;;3.55;1.10;;;11.70;93.70;;;;;;4755801;30;20082;-77
2023/11/20 00:56:28;;;;;;;1.65;0.88;;;11.70;93.70;;;;;;4770929;30;20104;-76
2023/11/20 00:58:54;;;;;;;1.95;0.75;;;11.60;93.70;;;;;;4770916;30;20546;-77
2023/11/20 01:01:20;;;;;;;3.05;0.70;;;11.60;93.70;;;;;;4770564;30;20127;-76
2023/11/20 01:03:45;;;;;;;1.52;0.77;;;11.60;93.70;;;;;;4770046;30;20376;-76
2023/11/20 01:06:12;;;;;;;2.63;0.90;;;11.60;93.70;;;;;;4786191;30;20063;-76
2023/11/20 01:08:38;;;;;;;2.20;0.70;;;11.60;93.70;;;;;;4786530;30;20039;-76
2023/11/20 01:11:08;;;;;;;1.80;0.60;;;11.60;93.70;;;;;;4786359;30;20039;-76
2023/11/20 01:13:36;;;;;;;3.33;1.02;;;11.60;93.70;;;;;;4755223;30;20123;-76
2023/11/20 01:16:04;;;;;;;2.63;0.80;;;11.60;93.70;;;;;;4786292;30;20130;-76
2023/11/20 01:18:31;;;;;;;1.67;0.82;;;11.60;93.70;;;;;;4770793;30;20507;-76
2023/11/20 01:20:57;;;;;;;2.08;0.80;;;11.50;93.70;;;;;;4786193;30;20055;-77
2023/11/20 01:23:23;;;;;;;3.95;0.80;;;11.60;93.80;;;;;;4770267;30;20055;-77
2023/11/20 01:25:49;;;;;;;2.92;0.80;;;11.60;93.70;;;;;;4786031;30;20176;-76
2023/11/20 01:28:14;;;;;;;3.13;0.98;;;11.60;93.80;;;;;;4770333;30;20159;-77
2023/11/20 01:30:40;;;;;;;2.53;0.75;;;11.60;93.80;;;;;;4787614;30;20046;-77
2023/11/20 01:33:07;;;;;;;2.70;0.80;;;11.50;93.70;;;;;;4786862;30;20051;-76
2023/11/20 01:35:32;;;;;;;3.10;0.90;;;11.50;93.70;;;;;;4786338;30;20051;-76
2023/11/20 01:37:58;;;;;;;2.85;0.63;;;11.50;93.80;;;;;;4754973;30;20049;-76
2023/11/20 01:40:24;;;;;;;2.58;0.90;;;11.50;93.80;;;;;;4769920;30;20082;-74
2023/11/20 01:42:49;;;;;;;2.58;0.68;;;11.50;93.80;;;;;;4755092;30;20063;-76
2023/11/20 01:45:15;;;;;;;3.95;0.90;;;11.50;93.80;;;;;;4786001;30;20044;-76
2023/11/20 01:47:41;;;;;;;3.97;1.00;;;11.50;93.80;;;;;;4785735;30;20140;-76
2023/11/20 01:50:10;;;;;;;3.15;0.80;;;11.50;93.80;;;;;;4769907;30;20047;-77
2023/11/20 01:52:41;;;;;;;3.67;0.90;;;11.50;93.80;;;;;;4769307;30;20581;-76
2023/11/20 01:55:09;;;;;;;3.47;0.70;;;11.50;93.80;;;;;;4770324;30;20453;-77
2023/11/20 01:57:36;;;;;;;3.03;0.80;;;11.50;93.80;;;;;;4773082;30;20066;-77
2023/11/20 02:00:09;;;;;;;3.67;0.80;;;11.50;93.80;;;;;;4772909;30;20066;-76
2023/11/20 02:02:38;;;;;;;3.72;0.85;;;11.50;93.80;;;;;;4773418;30;20055;-76
2023/11/20 02:05:05;;;;;;;3.95;0.90;;;11.50;93.80;;;;;;4758001;30;20032;-77
2023/11/20 02:07:33;;;;;;;2.22;0.82;;;11.50;93.80;;;;;;4773026;30;20039;-76
2023/11/20 02:09:59;;;;;;;0.93;0.70;;;11.50;93.80;;;;;;4788895;30;20054;-76
2023/11/20 02:12:25;;;;;;;2.15;0.68;;;11.40;93.80;;;;;;4772752;30;20130;-76
2023/11/20 02:14:51;;;;;;;2.22;0.60;;;11.50;93.80;;;;;;4772503;30;20071;-76
2023/11/20 02:17:17;;;;;;;3.28;0.80;;;11.40;93.80;;;;;;4772654;30;20467;-76
2023/11/20 02:19:49;;;;;;;2.63;0.50;;;11.40;93.80;;;;;;4788937;30;20134;-77
2023/11/20 02:22:16;;;;;;;2.25;0.70;;;11.40;93.80;;;;;;4772563;30;20097;-76
2023/11/20 02:24:43;;;;;;;3.25;0.90;;;11.40;93.80;;;;;;4788469;30;20051;-76
2023/11/20 02:27:45;;;;;;;0.98;0.40;;;11.40;93.80;;;;;;4772186;30;20521;-76
2023/11/20 02:30:12;;;;;;;2.35;0.50;;;11.40;93.80;;;;;;4772030;30;20445;-76
2023/11/20 02:32:37;;;;;;;2.63;0.80;;;11.40;93.80;;;;;;4772741;30;20059;-75
2023/11/20 02:35:04;;;;;;;3.47;0.60;;;11.40;93.80;;;;;;4772290;30;20046;-75
2023/11/20 02:37:30;;;;;;;1.58;0.80;;;11.40;93.90;;;;;;4788452;30;20386;-76
2023/11/20 02:39:56;;;;;;;3.13;0.80;;;11.40;93.90;;;;;;4772201;30;20053;-75
2023/11/20 02:42:22;;;;;;;3.88;0.60;;;11.30;93.90;;;;;;4772670;30;20055;-75
2023/11/20 02:44:49;;;;;;;3.00;0.75;;;11.40;93.90;;;;;;4772304;30;20513;-76
2023/11/20 02:47:15;;;;;;;2.13;0.68;;;11.40;93.90;;;;;;4787922;30;20035;-77
2023/11/20 02:49:41;;;;;;;1.38;0.50;;;11.30;93.90;;;;;;4788378;30;20036;-76
2023/11/20 02:52:08;;;;;;;2.22;0.40;;;11.30;93.90;;;;;;4757416;30;20047;-77
2023/11/20 02:54:35;;;;;;;1.85;0.70;;;11.30;93.90;;;;;;4772044;30;20075;-76
2023/11/20 02:57:01;;;;;;;3.60;0.52;;;11.30;93.90;;;;;;4772209;30;20039;-76
2023/11/20 02:59:28;;;;;;;1.50;0.60;;;11.30;93.90;;;;;;4788479;30;20112;-76
2023/11/20 03:01:55;;;;;;;3.40;0.80;;;11.30;93.80;;;;;;4788374;30;20130;-76
2023/11/20 03:04:22;;;;;;;3.88;0.93;;;11.30;93.80;;;;;;4787956;30;20055;-76
2023/11/20 03:06:47;;;;;;;1.50;0.50;;;11.30;93.80;;;;;;4770548;30;20049;-76
2023/11/20 03:09:13;;;;;;;2.05;0.60;;;11.30;93.80;;;;;;4788149;30;20418;-76
2023/11/20 03:11:39;;;;;;;2.92;0.80;;;11.20;93.80;;;;;;4787869;30;20058;-76
2023/11/20 03:14:05;;;;;;;2.08;0.73;;;11.20;93.80;;;;;;4788116;30;20055;-77
2023/11/20 03:16:31;;;;;;;1.85;0.57;;;11.20;93.80;;;;;;4787678;30;20131;-76
2023/11/20 03:18:57;;;;;;;0.93;0.40;;;11.10;93.80;;;;;;4787970;30;20043;-76
2023/11/20 03:21:24;;;;;;;0.85;0.60;;;11.20;93.90;;;;;;4756910;30;20047;-76
2023/11/20 03:23:50;;;;;;;2.10;0.65;;;11.20;93.90;;;;;;4771361;30;20236;-76
2023/11/20 03:26:22;;;;;;;3.28;0.90;;;11.20;93.90;;;;;;4757065;30;20139;-75
2023/11/20 03:28:48;;;;;;;2.38;0.65;;;11.20;93.90;;;;;;4787633;30;20051;-76
2023/11/20 03:31:14;;;;;;;1.35;0.45;;;11.20;93.90;;;;;;4787244;30;20070;-76
2023/11/20 03:33:40;;;;;;;2.03;0.60;;;11.20;93.90;;;;;;4787810;30;20061;-76
2023/11/20 03:36:06;;;;;;;2.20;0.70;;;11.20;93.90;;;;;;4788019;30;20035;-75
2023/11/20 03:38:31;;;;;;;3.35;0.90;;;11.20;93.90;;;;;;4787846;30;20083;-76
2023/11/20 03:40:57;;;;;;;2.70;0.90;;;11.20;93.90;;;;;;4787348;30;20044;-76
2023/11/20 03:43:23;;;;;;;3.78;0.90;;;11.30;93.90;;;;;;4771552;30;20039;-76
2023/11/20 03:45:49;;;;;;;2.80;0.70;;;11.20;93.90;;;;;;4787214;30;20053;-76
2023/11/20 03:48:15;;;;;;;2.97;0.70;;;11.20;93.90;;;;;;4771507;30;20050;-76
2023/11/20 03:50:41;;;;;;;3.17;1.00;;;11.20;93.90;;;;;;4771558;30;20119;-77
2023/11/20 03:53:06;;;;;;;2.33;0.50;;;11.30;93.90;;;;;;4787462;30;20054;-76
2023/11/20 03:55:32;;;;;;;0.98;0.45;;;11.20;93.90;;;;;;4771030;30;20077;-76
2023/11/20 03:57:58;;;;;;;2.13;0.60;;;11.20;93.90;;;;;;4756653;30;20483;-76
2023/11/20 04:00:23;;;;;;;2.20;0.80;;;11.20;93.90;;;;;;4787037;30;20103;-76
2023/11/20 04:02:49;;;;;;;3.15;0.50;;;11.10;93.90;;;;;;4770907;30;20178;-76
2023/11/20 04:05:15;;;;;;;2.40;0.70;;;11.10;93.80;;;;;;4787272;30;20078;-76
2023/11/20 04:07:40;;;;;;;0.90;0.47;;;11.20;93.90;;;;;;4771267;30;20507;-77
2023/11/20 04:10:07;;;;;;;1.77;0.70;;;11.10;93.90;;;;;;4786933;30;20040;-76
2023/11/20 04:12:33;;;;;;;3.13;0.88;;;11.20;93.90;;;;;;4771279;30;20055;-76
2023/11/20 04:14:59;;;;;;;1.85;0.65;;;11.20;93.90;;;;;;4771129;30;20054;-76
2023/11/20 04:17:25;;;;;;;3.03;0.80;;;11.20;93.80;;;;;;4770350;29;20508;-76
2023/11/20 04:19:50;;;;;;;1.33;0.57;;;11.20;93.80;;;;;;4786951;30;20089;-76
2023/11/20 04:22:16;;;;;;;1.45;0.60;;;11.20;93.80;;;;;;4771162;30;20062;-77
2023/11/20 04:24:42;;;;;;;3.20;0.88;;;11.20;93.80;;;;;;4770867;30;20047;-76
2023/11/20 04:27:08;;;;;;;3.72;0.88;;;11.20;93.80;;;;;;4787296;30;20031;-76
2023/11/20 04:29:34;;;;;;;2.03;0.60;;;11.20;93.80;;;;;;4786900;30;20111;-77
2023/11/20 04:32:00;;;;;;;2.45;0.70;;;11.20;93.80;;;;;;4786843;30;20193;-76
2023/11/20 04:34:25;;;;;;;1.30;0.50;;;11.20;93.80;;;;;;4771068;30;20074;-75
2023/11/20 04:36:51;;;;;;;3.63;0.70;;;11.20;93.80;;;;;;4770495;30;20082;-76
2023/11/20 04:39:31;;;;;;;1.58;0.52;;;11.20;93.80;;;;;;4755649;30;20042;-77
2023/11/20 04:41:58;;;;;;;2.38;0.57;;;11.20;94.00;;;;;;4786918;30;20142;-76
2023/11/20 04:44:24;;;;;;;1.60;0.40;;;11.20;93.70;;;;;;4770435;30;20070;-76
2023/11/20 04:46:49;;;;;;;2.47;0.70;;;11.20;93.70;;;;;;4786691;30;20055;-76
2023/11/20 04:49:15;;;;;;;2.30;0.70;;;11.20;93.70;;;;;;4786666;30;20049;-76
2023/11/20 04:51:41;;;;;;;3.47;0.68;;;11.20;93.70;;;;;;4755260;30;20149;-77
2023/11/20 04:54:07;;;;;;;2.58;0.60;;;11.20;93.70;;;;;;4770330;30;20057;-76
2023/11/20 04:56:32;;;;;;;1.30;0.57;;;11.10;93.70;;;;;;4786818;30;20055;-76
2023/11/20 04:58:59;;;;;;;1.23;0.50;;;11.20;93.70;;;;;;4755220;30;20055;-77
2023/11/20 05:01:26;;;;;;;1.95;0.57;;;11.10;93.70;;;;;;4770142;30;20063;-76
2023/11/20 05:03:52;;;;;;;1.90;0.50;;;11.20;93.70;;;;;;4786574;30;20499;-76
2023/11/20 05:06:18;;;;;;;5.07;0.80;;;11.20;93.70;;;;;;4755322;30;20564;-76
2023/11/20 05:08:43;;;;;;;3.15;0.65;;;11.20;93.70;;;;;;4786425;30;20035;-76
2023/11/20 05:11:09;;;;;;;3.53;0.70;;;11.20;93.70;;;;;;4770423;30;20051;-76
2023/11/20 05:13:35;;;;;;;2.90;0.65;;;11.10;93.70;;;;;;4756002;30;20394;-77
2023/11/20 05:16:01;;;;;;;2.58;0.50;;;11.20;93.70;;;;;;4755290;30;20051;-77
2023/11/20 05:18:27;;;;;;;2.55;0.88;;;11.20;93.70;;;;;;4755311;30;20051;-76
2023/11/20 05:20:53;;;;;;;2.67;0.50;;;11.10;93.70;;;;;;4770329;30;20510;-76
2023/11/20 05:23:20;;;;;;;4.13;0.70;;;11.10;93.60;;;;;;4770146;30;20055;-77
2023/11/20 05:25:45;;;;;;;1.15;0.50;;;11.10;93.60;;;;;;4786250;30;20040;-76
2023/11/20 05:28:11;;;;;;;3.17;0.60;;;11.10;93.70;;;;;;4770630;30;20490;-77
2023/11/20 05:30:38;;;;;;;1.20;0.60;;;11.10;93.60;;;;;;4772403;30;20035;-76
2023/11/20 05:33:04;;;;;;;2.45;0.65;;;11.10;93.60;;;;;;4773270;30;20408;-76
2023/11/20 05:35:30;;;;;;;2.17;0.40;;;11.10;93.60;;;;;;4758480;30;20047;-77
2023/11/20 05:37:55;;;;;;;1.42;0.47;;;11.10;93.60;;;;;;4789231;30;20043;-77
2023/11/20 05:40:21;;;;;;;2.33;0.52;;;11.10;93.60;;;;;;4789941;30;20119;-77
2023/11/20 05:42:47;;;;;;;1.67;0.55;;;11.10;93.60;;;;;;4772960;30;20584;-76
2023/11/20 05:45:13;;;;;;;4.28;0.70;;;11.00;93.60;;;;;;4789300;30;20043;-77
2023/11/20 05:47:38;;;;;;;3.03;0.52;;;11.00;93.60;;;;;;4743789;30;20047;-76
2023/11/20 05:50:05;;;;;;;2.13;0.30;;;11.00;93.60;;;;;;4773248;30;20096;-76
2023/11/20 05:52:32;;;;;;;1.67;0.50;;;11.00;93.60;;;;;;4773066;30;20059;-77
2023/11/20 05:54:58;;;;;;;1.27;0.40;;;10.90;93.70;;;;;;4789232;30;20108;-77
2023/11/20 05:57:23;;;;;;;1.90;0.40;;;10.90;93.70;;;;;;4773746;30;20043;-76
2023/11/20 05:59:49;;;;;;;1.35;0.50;;;10.90;93.70;;;;;;4772994;30;20123;-77
2023/11/20 06:02:15;;;;;;;1.42;0.55;;;10.90;93.70;;;;;;4743441;30;20048;-77
2023/11/20 06:04:41;;;;;;;1.77;0.40;;;10.90;93.70;;;;;;4773252;30;20514;-77
2023/11/20 06:07:07;;;;;;;1.75;0.60;;;10.90;93.70;;;;;;4789165;30;20039;-76
2023/11/20 06:09:32;;;;;;;2.22;0.60;;;10.90;93.70;;;;;;4772737;30;20407;-76
2023/11/20 06:11:58;;;;;;;3.03;0.73;;;11.00;93.70;;;;;;4772693;30;20059;-76
2023/11/20 06:14:24;;;;;;;4.20;0.80;;;10.90;93.70;;;;;;4772939;30;20047;-76
2023/11/20 06:16:49;;;;;;;3.08;0.65;;;10.90;93.60;;;;;;4757885;30;20134;-76
2023/11/20 06:19:15;;;;;;;1.95;0.68;;;10.90;93.60;;;;;;4788744;30;20384;-76
2023/11/20 06:21:45;;;;;;;1.60;0.47;;;10.90;93.60;;;;;;4760243;30;20047;-77
2023/11/20 06:24:11;;;;;;;2.38;0.60;;;10.90;93.60;;;;;;4794244;30;20035;-77
2023/11/20 06:26:37;;;;;;;3.75;0.70;;;10.90;93.60;;;;;;4764182;30;20053;-77
2023/11/20 06:29:02;;;;;;;1.65;0.68;;;11.00;93.50;;;;;;4797196;30;20055;-78
2023/11/20 06:31:28;;;;;;;3.08;0.70;;;10.90;93.50;;;;;;4798084;30;20043;-78
2023/11/20 06:33:54;;;;;;;1.67;0.60;;;10.90;93.80;;;;;;4792040;30;20051;-78
2023/11/20 06:36:19;;;;;;;2.10;0.45;;;10.80;93.50;;;;;;4760964;30;20051;-77
2023/11/20 06:38:45;;;;;;;1.48;0.52;;;10.80;93.80;;;;;;4776101;30;20047;-78
2023/11/20 06:41:11;;;;;;;3.45;0.80;;;10.80;93.60;;;;;;4775759;30;20552;-78
2023/11/20 06:43:37;;;;;;;1.48;0.50;;;10.80;93.60;;;;;;4789984;30;20059;-77
2023/11/20 06:46:03;;;;;;;2.42;0.50;;;10.70;93.60;;;;;;4772597;30;20496;-77
2023/11/20 06:48:29;;;;;;;1.88;0.63;;;10.70;93.60;;;;;;4773922;30;20047;-77
2023/11/20 06:50:54;;;;;;;2.60;0.60;;;10.70;93.70;;;;;;4774041;30;20050;-78
2023/11/20 06:53:21;;;;;;;2.47;0.60;;;10.60;93.70;;;;;;4778353;30;20142;-77
2023/11/20 06:55:47;;;;;;;4.20;0.70;;;10.60;93.70;;;;;;4761551;30;20400;-77
2023/11/20 06:58:13;;;;;;;2.83;0.77;;;10.60;93.70;;;;;;4774426;30;20035;-78
2023/11/20 07:00:39;;;;;;;3.30;0.70;;;10.60;93.70;;;;;;4759886;30;20116;-76
2023/11/20 07:03:04;;;;;;;2.05;0.73;;;10.60;93.70;;;;;;4763034;30;20143;-77
2023/11/20 07:05:30;;;;;;;2.10;0.80;;;10.60;93.70;;;;;;4792241;30;20143;-78
2023/11/20 07:07:58;;;;;;;3.17;1.05;;;10.60;93.70;;;;;;4773106;30;20100;-76
2023/11/20 07:10:25;;;;;;;1.60;0.60;;;10.60;93.60;;;;;;4789049;30;20544;-77
2023/11/20 07:12:53;;;;;;;2.97;0.70;;;10.60;93.60;;;;;;4773974;30;20372;-77
2023/11/20 07:15:20;;;;;;;2.88;0.77;;;10.60;93.60;;;;;;4789071;30;20047;-77
2023/11/20 07:17:47;;;;;;;2.53;0.60;;;10.60;93.60;;;;;;4774026;30;20043;-77
2023/11/20 07:20:13;;;;;;;1.15;0.63;;;10.60;93.60;;;;;;4773345;30;20172;-77
2023/11/20 07:22:39;;;;;;;2.88;0.70;;;10.60;93.60;;;;;;4774378;30;20063;-77
2023/11/20 07:25:05;;;;;;;1.08;0.47;;;10.60;93.60;;;;;;4789456;30;20133;-77
2023/11/20 07:27:31;;;;;;;3.05;0.80;;;10.60;93.50;;;;;;4771766;30;20084;-77
2023/11/20 07:29:57;;;;;;;2.80;0.55;;;10.60;93.50;;;;;;4771732;30;20051;-76
2023/11/20 07:32:23;;;;;;;1.85;0.60;;;10.60;93.50;;;;;;4773570;30;20055;-78
2023/11/20 07:34:49;;;;;;;3.70;0.73;;;10.60;93.60;;;;;;4788908;30;20055;-77
2023/11/20 07:37:16;;;;;;;1.83;0.55;;;10.60;93.60;;;;;;4779596;30;20043;-79
2023/11/20 07:39:42;;;;;;;3.60;0.63;;;10.60;93.50;;;;;;4795460;29;20062;-78
2023/11/20 07:42:09;;;;;;;3.72;1.08;;;10.60;93.60;;;;;;4907499;24;20498;-79
2023/11/20 07:44:37;;;;;;;3.53;0.63;;;10.60;93.60;;;;;;4831232;29;20049;-78
2023/11/20 07:47:03;;;;;;;3.78;0.70;;;10.60;93.60;;;;;;4829125;29;20064;-79
2023/11/20 07:49:31;;;;;;;3.50;0.90;;;10.50;93.50;;;;;;4830834;29;20073;-79
2023/11/20 07:52:09;;;;;;;2.78;0.52;;;10.60;93.50;;;;;;4813234;29;20043;-79
2023/11/20 07:54:35;;;;;;;1.05;0.47;;;10.60;93.50;;;;;;4838385;29;20058;-78
2023/11/20 07:57:03;;;;;;;1.48;0.68;;;10.50;93.60;;;;;;4812577;29;20125;-78
2023/11/20 07:59:29;;;;;;;3.13;0.55;;;10.50;93.90;;;;;;4817717;29;20035;-78
2023/11/20 08:01:55;;;;;;;3.15;0.90;;;10.50;93.60;;;;;;4810190;29;20116;-79
2023/11/20 08:04:23;;;;;;;4.07;0.77;;;10.50;93.60;;;;;;4807270;29;20046;-77
2023/11/20 08:07:25;;;;;;;2.47;0.60;;;10.50;93.60;;;;;;4790981;29;20413;-77
2023/11/20 08:10:03;;;;;;;3.45;0.90;;;10.40;93.50;;;;;;4781974;29;20051;-77
2023/11/20 08:16:25;;;;;;;1.85;0.65;;;10.50;93.50;;;;;;4773180;30;21060;-77
2023/11/20 08:22:20;;;;;;;3.03;0.70;;;10.50;93.50;;;;;;4645105;30;20100;-77
2023/11/20 08:25:35;;;;;;;2.40;0.60;;;10.40;93.50;;;;;;4645241;30;20055;-77
2023/11/20 08:29:27;;;;;;;2.78;0.80;;;10.40;93.50;;;;;;4620804;30;20198;-77
2023/11/20 08:31:42;;;;;;;3.33;0.80;;;10.40;93.50;;;;;;4642550;30;20051;-75
2023/11/20 08:34:08;;;;;;;2.17;1.00;;;10.40;93.50;;;;;;4631416;30;20046;-75
2023/11/20 08:36:34;;;;;;;2.15;0.75;;;10.30;93.50;;;;;;4646059;30;20065;-76
2023/11/20 08:39:02;;;;;;;2.67;0.77;;;10.40;93.50;;;;;;4645705;30;20051;-74
2023/11/20 08:41:29;;;;;;;3.10;0.60;;;10.40;93.40;;;;;;4630094;30;20137;-76
2023/11/20 08:43:55;;;;;;;1.08;0.60;;;10.40;93.40;;;;;;4702523;30;20051;-75
2023/11/20 08:46:22;;;;;;;1.92;0.50;;;10.50;93.40;;;;;;4709678;30;20049;-74
2023/11/20 08:48:48;;;;;;;2.95;0.70;;;10.40;93.40;;;;;;4702768;30;20488;-77
2023/11/20 08:51:13;;;;;;;2.92;0.70;;;10.60;93.40;;;;;;4717016;30;20045;-76
2023/11/20 08:53:39;;;;;;;2.70;0.82;;;10.50;93.40;;;;;;4716960;30;20040;-75
2023/11/20 08:56:05;;;;;;;4.00;0.85;;;10.60;93.30;;;;;;4731794;30;20049;-75
2023/11/20 08:58:31;;;;;;;2.97;0.80;;;10.60;93.30;;;;;;4742133;29;20443;-74
2023/11/20 09:00:56;;;;;;;4.72;0.75;;;10.60;93.30;;;;;;4823074;29;20054;-74
2023/11/20 09:03:22;;;;;;;2.10;0.63;;;10.60;93.20;;;;;;4806364;29;20051;-74
2023/11/20 09:05:48;;;;;;;4.07;0.90;;;10.60;93.20;;;;;;4791199;29;20397;-75
2023/11/20 09:08:14;;;;;;;3.22;0.70;;;10.60;93.20;;;;;;4791394;29;20039;-75
2023/11/20 09:10:40;;;;;;;3.20;0.80;;;10.60;93.20;;;;;;4806510;29;20064;-75
2023/11/20 09:13:05;;;;;;;2.00;0.68;;;10.60;93.20;;;;;;4805891;29;20042;-75
2023/11/20 09:15:31;;;;;;;1.73;0.75;;;10.70;93.20;;;;;;4805949;29;20146;-75
2023/11/20 09:17:57;;;;;;;4.55;0.90;;;10.70;93.20;;;;;;4805881;29;20065;-76
2023/11/20 09:20:24;;;;;;;3.80;0.70;;;10.70;93.20;;;;;;4822451;29;20042;-76
2023/11/20 09:22:50;;;;;;;3.13;0.82;;;10.70;93.10;;;;;;4820768;29;20054;-75
2023/11/20 09:25:16;;;;;;;2.63;0.95;;;10.70;93.10;;;;;;4822385;29;20041;-76
2023/11/20 09:27:42;;;;;;;3.08;0.98;;;10.80;93.10;;;;;;4806158;29;20081;-75
2023/11/20 09:30:10;;;;;;;2.63;0.90;;;10.80;93.10;;;;;;4805983;29;20079;-75
2023/11/20 09:32:36;;;;;;;3.13;0.80;;;10.90;93.10;;;;;;4806735;29;20050;-76
2023/11/20 09:35:01;;;;;;;2.88;0.85;;;10.90;93.00;;;;;;4822397;29;20458;-74
2023/11/20 09:37:28;;;;;;;2.95;0.90;;;11.00;93.00;;;;;;4806259;29;20474;-74
2023/11/20 09:39:54;;;;;;;2.83;0.80;;;11.00;93.00;;;;;;4804531;29;20473;-75
2023/11/20 09:42:22;;;;;;;3.92;0.88;;;11.00;93.00;;;;;;4805803;29;20062;-75
2023/11/20 09:44:49;;;;;;;2.97;0.77;;;11.10;92.90;;;;;;4822391;29;20042;-75
2023/11/20 09:47:16;;;;;;;4.13;0.90;;;11.00;92.90;;;;;;4822506;29;20034;-75
2023/11/20 09:49:43;;;;;;;3.33;0.80;;;11.10;92.90;;;;;;4791001;29;20039;-73
2023/11/20 09:52:09;;;;;;;1.90;0.88;;;11.10;92.80;;;;;;4822371;29;20394;-75
2023/11/20 09:54:38;;;;;;;2.67;1.10;;;11.10;92.80;;;;;;4821860;29;20045;-74
2023/11/20 09:57:05;;;;;;;2.85;1.00;;;11.10;92.80;;;;;;4805670;29;20367;-74
2023/11/20 09:59:31;;;;;;;1.83;0.73;;;11.10;92.80;;;;;;4804725;29;20054;-75
2023/11/20 10:01:58;;;;;;;3.25;0.98;;;11.10;92.80;;;;;;4805689;29;20055;-74
2023/11/20 10:04:27;;;;;;;2.50;0.75;;;11.10;92.80;;;;;;4805616;29;20046;-74
2023/11/20 10:06:54;;;;;;;4.03;0.95;;;11.10;92.80;;;;;;4805703;29;20065;-74
2023/11/20 10:09:22;;;;;;;1.80;0.70;;;11.10;92.80;;;;;;4790929;29;20045;-74
2023/11/20 10:11:52;;;;;;;3.83;1.23;;;11.10;92.80;;;;;;4789929;29;20054;-74
2023/11/20 10:14:19;;;;;;;1.90;0.82;;;11.10;92.80;;;;;;4805594;29;20068;-73
2023/11/20 10:16:46;;;;;;;2.63;1.00;;;11.10;92.80;;;;;;4823279;29;20095;-74
2023/11/20 10:19:15;;;;;;;5.50;1.10;;;11.10;92.80;;;;;;4809099;29;20497;-74
2023/11/20 10:21:41;;;;;;;3.92;1.15;;;11.10;92.80;;;;;;4825372;29;20050;-73
2023/11/20 10:24:11;;;;;;;5.03;1.20;;;11.10;92.80;;;;;;4824688;29;20038;-74
2023/11/20 10:26:46;;;;;;;2.13;1.13;;;11.10;92.70;;;;;;4793822;29;20092;-74
2023/11/20 10:29:11;;;;;;;2.35;1.13;;;11.10;92.70;;;;;;4808508;29;20087;-74
2023/11/20 10:31:45;;;;;;;4.60;1.30;;;11.10;92.80;;;;;;4792699;29;20397;-74
2023/11/20 10:34:12;;;;;;;1.40;0.90;;;11.10;92.80;;;;;;4825192;29;20043;-76
2023/11/20 10:36:39;;;;;;;1.55;0.98;;;11.10;92.90;;;;;;4793280;29;20046;-75
2023/11/20 10:39:08;;;;;;;2.38;1.13;;;11.20;92.90;;;;;;4808516;29;20042;-75
2023/11/20 10:41:40;;;;;;;4.32;1.42;;;11.20;92.90;;;;;;4809082;29;20129;-75
2023/11/20 10:44:05;;;;;;;1.52;0.95;;;11.40;93.10;;;;;;4806987;29;20046;-75
2023/11/20 10:46:34;;;;;;;3.28;1.25;;;11.50;92.70;;;;;;4808752;29;20035;-75
2023/11/20 10:49:06;;;;;;;2.72;1.42;;;11.60;92.60;;;;;;4808054;29;20492;-74
2023/11/20 10:51:34;;;;;;;4.38;1.42;;;11.70;92.50;;;;;;4807465;29;20045;-76
2023/11/20 10:54:04;;;;;;;3.67;1.60;;;11.70;92.40;;;;;;4808288;29;20049;-74
2023/11/20 10:56:33;;;;;;;3.60;1.40;;;11.80;92.30;;;;;;4824791;29;20130;-75
2023/11/20 10:59:00;;;;;;;4.50;1.40;;;11.80;92.30;;;;;;4824193;29;20043;-74
2023/11/20 11:01:29;;;;;;;2.85;1.50;;;11.80;92.30;;;;;;4824219;29;20042;-75
2023/11/20 11:03:57;;;;;;;4.95;1.67;;;11.80;92.30;;;;;;4824551;29;20035;-74
2023/11/20 11:06:24;;;;;;;2.60;1.10;;;11.80;92.30;;;;;;4792310;29;20502;-75
2023/11/20 11:08:52;;;;;;;5.88;2.22;;;11.90;92.30;;;;;;4824278;29;20038;-74
2023/11/20 11:11:18;;;;;;;3.83;1.63;;;11.80;92.30;;;;;;4808050;29;20054;-74
2023/11/20 11:13:47;;;;;;;5.72;1.70;;;11.80;92.20;;;;;;4822557;29;20038;-74
2023/11/20 11:16:28;;;;;;;4.88;1.80;;;12.00;92.20;;;;;;4793206;29;20466;-74
2023/11/20 11:19:02;;;;;;;2.90;1.52;;;12.00;92.10;;;;;;4807753;29;20045;-74
2023/11/20 11:21:38;;;;;;;2.78;1.63;;;12.00;92.10;;;;;;4793094;29;20110;-73
2023/11/20 11:24:09;;;;;;;2.65;1.73;;;11.90;92.00;;;;;;4808872;29;20042;-73
2023/11/20 11:27:03;;;;;;;5.60;1.70;;;11.80;92.10;;;;;;4807576;29;20494;-74
2023/11/20 11:29:35;;;;;;;3.10;1.50;;;11.70;92.20;;;;;;4823982;29;20035;-74
2023/11/20 11:32:35;;;;;;;3.38;1.52;;;11.60;92.30;;;;;;4824307;29;20039;-74
2023/11/20 11:35:34;;;;;;;4.07;1.70;;;11.60;92.40;;;;;;4809647;29;20035;-76
2023/11/20 11:38:35;;;;;;;2.53;1.38;;;11.60;92.50;;;;;;4823554;29;20375;-72
2023/11/20 11:41:25;;;;;;;2.73;1.27;;;11.60;92.40;;;;;;4807288;29;20525;-74
2023/11/20 11:43:59;;;;;;;2.58;1.30;;;11.70;92.40;;;;;;4809406;29;20058;-73
2023/11/20 11:46:25;;;;;;;2.42;1.25;;;11.80;92.30;;;;;;4792783;29;20107;-75
2023/11/20 11:48:51;;;;;;;2.35;1.13;;;11.90;92.20;;;;;;4807509;29;20819;-74
2023/11/20 11:51:20;;;;;;;3.22;1.42;;;11.90;92.20;;;;;;4824223;29;20042;-74
2023/11/20 11:54:15;;;;;;;3.78;1.30;;;11.90;92.10;;;;;;4823757;29;20044;-73
2023/11/20 11:57:05;;;;;;;3.83;1.25;;;11.90;92.10;;;;;;4823494;29;20061;-74
2023/11/20 11:59:41;;;;;;;1.85;1.05;;;11.90;92.10;;;;;;4807296;29;20070;-73
2023/11/20 12:02:09;;;;;;;3.30;1.35;;;12.10;92.20;;;;;;4823985;29;20050;-73
2023/11/20 12:05:01;;;;;;;4.68;1.30;;;12.20;92.10;;;;;;4807061;29;20061;-73
2023/11/20 12:07:57;;;;;;;1.98;1.10;;;12.50;91.90;;;;;;4823493;29;20039;-75
2023/11/20 12:10:39;;;;;;;2.20;1.00;;;12.50;91.80;;;;;;4809805;29;20373;-73
2023/11/20 12:13:09;;;;;;;3.17;1.05;;;12.60;91.60;;;;;;4806989;29;20081;-73
2023/11/20 12:15:37;;;;;;;2.22;0.80;;;12.60;91.40;;;;;;4823328;29;20448;-73
2023/11/20 12:18:09;;;;;;;2.17;0.93;;;12.40;91.40;;;;;;4823806;29;20113;-74
2023/11/20 12:20:37;;;;;;;2.40;1.10;;;12.50;91.40;;;;;;4806913;29;20050;-75
2023/11/20 12:23:06;;;;;;;1.33;0.75;;;12.40;91.50;;;;;;4823383;29;20055;-74
2023/11/20 12:25:36;;;;;;;2.35;0.90;;;12.40;91.50;;;;;;4807247;29;20050;-75
2023/11/20 12:28:05;;;;;;;2.53;0.98;;;12.40;91.50;;;;;;4806863;29;20573;-75
2023/11/20 12:30:32;;;;;;;1.73;0.85;;;12.50;91.50;;;;;;4806690;29;20036;-75
2023/11/20 12:32:58;;;;;;;2.78;1.00;;;12.40;91.40;;;;;;4807472;29;20091;-76
2023/11/20 12:35:31;;;;;;;2.47;0.98;;;12.50;91.40;;;;;;4792334;29;20046;-77
2023/11/20 12:38:10;;;;;;;2.55;0.80;;;12.60;91.70;;;;;;4806868;29;20054;-76
2023/11/20 12:40:36;;;;;;;1.88;0.98;;;12.70;91.40;;;;;;4802340;29;20127;-76
2023/11/20 12:43:02;;;;;;;1.15;0.57;;;12.80;91.20;;;;;;4772913;29;20047;-76
2023/11/20 12:45:28;;;;;;;1.75;0.68;;;12.90;91.10;;;;;;4772862;29;20051;-74
2023/11/20 12:47:54;;;;;;;2.13;0.60;;;12.90;91.00;;;;;;4801080;29;20135;-76
2023/11/20 12:50:22;;;;;;;1.83;0.70;;;12.90;91.00;;;;;;4787631;29;20046;-74
2023/11/20 12:52:48;;;;;;;1.25;0.75;;;12.90;90.90;;;;;;4787734;29;20038;-75
2023/11/20 12:55:16;;;;;;;1.63;0.70;;;12.90;90.80;;;;;;4802638;29;20046;-74
2023/11/20 12:57:42;;;;;;;1.42;0.68;;;12.80;90.80;;;;;;4801459;29;20122;-73
2023/11/20 13:00:10;;;;;;;1.58;0.50;;;12.70;90.90;;;;;;4772442;29;20038;-74